Time;durP1;ratioP1;P1;durP2;ratioP2;P2;SDS_P1;SDS_P2;PMS_P1;PMS_P2;Temp;Humidity;BMP_temperature;BMP_pressure;BME280_temperature;BME280_humidity;BME280_pressure;Samples;Min_cycle;Max_cycle;Signal;HPM_P1;HPM_P2
2023/08/10 00:04:50;;;;;;;7.97;4.53;;;;;;;;;;2614953;54;20974;-74
2023/08/10 00:10:19;;;;;;;4.93;4.43;;;;;;;;;;2615263;54;20915;-74
2023/08/10 00:15:49;;;;;;;9.03;4.77;;;;;;;;;;2615167;54;20368;-74
2023/08/10 00:21:18;;;;;;;8.00;4.60;;;;;;;;;;2615304;54;20367;-72
2023/08/10 00:26:48;;;;;;;6.17;4.80;;;;;;;;;;2615031;54;20358;-73
2023/08/10 00:35:52;;;;;;;7.70;4.90;;;;;;;;;;2614600;54;20378;-73
2023/08/10 00:41:21;;;;;;;6.27;5.20;;;;;;;;;;2615050;54;20451;-74
2023/08/10 00:46:51;;;;;;;6.30;5.17;;;;;;;;;;2614967;54;20928;-73
2023/08/10 00:52:21;;;;;;;6.90;5.90;;;;;;;;;;2615407;54;20431;-73
2023/08/10 00:57:51;;;;;;;5.63;4.40;;;;;;;;;;2614773;54;20379;-73
2023/08/10 01:03:21;;;;;;;5.37;4.67;;;;;;;;;;2615328;39;20778;-74
2023/08/10 01:08:53;;;;;;;4.70;3.90;;;;;;;;;;2616401;39;20478;-74
2023/08/10 01:14:30;;;;;;;10.37;4.10;;;;;;;;;;2616538;54;20398;-74
2023/08/10 01:20:04;;;;;;;9.70;5.03;;;;;;;;;;2616481;54;20410;-73
2023/08/10 01:25:34;;;;;;;11.80;5.80;;;;;;;;;;2616656;54;20407;-74
2023/08/10 01:31:05;;;;;;;6.50;5.77;;;;;;;;;;2616518;54;20970;-73
2023/08/10 01:36:34;;;;;;;8.83;4.80;;;;;;;;;;2616067;54;20398;-75
2023/08/10 01:42:04;;;;;;;6.40;4.60;;;;;;;;;;2616390;54;20933;-74
2023/08/10 01:47:36;;;;;;;14.30;7.03;;;;;;;;;;2616396;54;20378;-74
2023/08/10 01:53:08;;;;;;;5.07;4.07;;;;;;;;;;2617295;31;20842;-74
2023/08/10 01:58:37;;;;;;;10.43;5.70;;;;;;;;;;2616834;39;20799;-75
2023/08/10 02:04:07;;;;;;;9.50;4.73;;;;;;;;;;2616376;54;20382;-74
2023/08/10 02:09:37;;;;;;;5.67;4.70;;;;;;;;;;2616875;54;20933;-74
2023/08/10 02:15:07;;;;;;;5.87;4.57;;;;;;;;;;2617061;54;20399;-74
2023/08/10 02:20:36;;;;;;;8.77;5.00;;;;;;;;;;2615266;54;20471;-73
2023/08/10 02:26:06;;;;;;;12.20;5.23;;;;;;;;;;2615259;54;20394;-73
2023/08/10 02:37:43;;;;;;;7.93;5.47;;;;;;;;;;2615869;54;20897;-74
2023/08/10 02:43:13;;;;;;;6.90;4.53;;;;;;;;;;2616408;54;20447;-76
2023/08/10 02:48:42;;;;;;;9.70;4.90;;;;;;;;;;2617364;54;20471;-74
2023/08/10 02:54:12;;;;;;;5.17;4.17;;;;;;;;;;2617502;54;20403;-75
2023/08/10 02:59:42;;;;;;;6.00;4.50;;;;;;;;;;2617389;54;20442;-75
2023/08/10 03:05:12;;;;;;;8.33;4.97;;;;;;;;;;2617295;54;20624;-75
2023/08/10 03:10:41;;;;;;;8.37;5.23;;;;;;;;;;2617133;54;20370;-75
2023/08/10 03:16:11;;;;;;;7.43;5.40;;;;;;;;;;2616801;54;20499;-75
2023/08/10 03:21:41;;;;;;;10.03;5.43;;;;;;;;;;2616943;54;20394;-74
2023/08/10 03:27:10;;;;;;;7.43;5.27;;;;;;;;;;2616609;54;20391;-72
2023/08/10 03:38:47;;;;;;;13.57;5.43;;;;;;;;;;2615937;54;20407;-74
2023/08/10 03:44:17;;;;;;;6.20;4.53;;;;;;;;;;2616130;54;21092;-73
2023/08/10 03:49:47;;;;;;;10.60;5.53;;;;;;;;;;2616435;54;20478;-73
2023/08/10 03:55:18;;;;;;;7.33;4.73;;;;;;;;;;2616104;54;20473;-74
2023/08/10 04:00:48;;;;;;;7.57;4.90;;;;;;;;;;2616077;54;20419;-73
2023/08/10 04:06:18;;;;;;;6.47;4.77;;;;;;;;;;2615575;54;20403;-74
2023/08/10 04:11:47;;;;;;;7.90;4.60;;;;;;;;;;2616372;54;20372;-74
2023/08/10 04:17:18;;;;;;;7.43;4.70;;;;;;;;;;2615460;54;20379;-73
2023/08/10 04:22:48;;;;;;;12.60;5.27;;;;;;;;;;2615369;54;20391;-73
2023/08/10 04:28:17;;;;;;;7.17;5.27;;;;;;;;;;2614891;54;20455;-73
2023/08/10 04:37:28;;;;;;;7.27;6.07;;;;;;;;;;2614872;54;21064;-73
2023/08/10 04:42:59;;;;;;;8.20;6.00;;;;;;;;;;2614680;54;20378;-73
2023/08/10 04:45:44;;;;;;;8.77;5.77;;;;;;;;;;2614262;54;20431;-73
2023/08/10 04:48:11;;;;;;;6.13;5.23;;;;;;;;;;2613944;47;20438;-72
2023/08/10 04:53:40;;;;;;;8.20;5.10;;;;;;;;;;2614565;54;20398;-72
2023/08/10 04:59:10;;;;;;;8.20;6.30;;;;;;;;;;2614564;54;20383;-72
2023/08/10 05:04:40;;;;;;;14.17;6.70;;;;;;;;;;2614770;54;20408;-73
2023/08/10 05:10:10;;;;;;;10.90;6.80;;;;;;;;;;2614576;54;20900;-73
2023/08/10 05:15:40;;;;;;;8.17;7.10;;;;;;;;;;2614928;54;20383;-73
2023/08/10 05:21:10;;;;;;;12.10;6.30;;;;;;;;;;2614837;54;21109;-73
2023/08/10 05:26:39;;;;;;;7.80;5.70;;;;;;;;;;2614764;54;20359;-73
2023/08/10 05:32:09;;;;;;;11.10;6.70;;;;;;;;;;2615168;54;20387;-73
2023/08/10 05:41:13;;;;;;;15.17;7.70;;;;;;;;;;2614596;54;20398;-73
2023/08/10 05:46:43;;;;;;;7.77;6.90;;;;;;;;;;2614989;39;21189;-73
2023/08/10 05:52:13;;;;;;;12.10;6.87;;;;;;;;;;2614609;54;20381;-71
2023/08/10 05:57:43;;;;;;;11.40;6.10;;;;;;;;;;2614183;54;21719;-70
2023/08/10 06:03:12;;;;;;;15.70;7.10;;;;;;;;;;2614637;54;20367;-71
2023/08/10 06:08:41;;;;;;;9.17;6.83;;;;;;;;;;2614586;54;20964;-73
2023/08/10 06:14:11;;;;;;;15.10;7.13;;;;;;;;;;2614665;54;20394;-71
2023/08/10 06:19:41;;;;;;;13.03;7.70;;;;;;;;;;2614669;46;20382;-71
2023/08/10 06:25:12;;;;;;;9.93;7.93;;;;;;;;;;2614400;54;20386;-71
2023/08/10 06:30:41;;;;;;;8.57;7.50;;;;;;;;;;2614716;47;20395;-71
2023/08/10 06:36:11;;;;;;;7.67;6.83;;;;;;;;;;2613869;54;20508;-72
2023/08/10 06:41:41;;;;;;;7.73;7.03;;;;;;;;;;2614751;54;20403;-71
2023/08/10 06:47:11;;;;;;;8.37;7.70;;;;;;;;;;2614648;46;20502;-72
2023/08/10 06:52:41;;;;;;;8.10;7.50;;;;;;;;;;2614944;54;20890;-70
2023/08/10 06:58:12;;;;;;;9.90;8.90;;;;;;;;;;2614149;54;20386;-72
2023/08/10 07:03:42;;;;;;;9.33;8.47;;;;;;;;;;2614814;54;20386;-72
2023/08/10 07:09:11;;;;;;;9.50;8.40;;;;;;;;;;2614409;54;20371;-72
2023/08/10 07:14:41;;;;;;;9.40;8.50;;;;;;;;;;2614458;54;20363;-71
2023/08/10 07:20:12;;;;;;;12.63;8.93;;;;;;;;;;2614208;54;20961;-71
2023/08/10 07:25:43;;;;;;;9.80;9.03;;;;;;;;;;2614383;54;20355;-72
2023/08/10 07:31:13;;;;;;;10.07;8.97;;;;;;;;;;2613849;54;20351;-72
2023/08/10 07:36:43;;;;;;;10.23;8.90;;;;;;;;;;2614672;54;20399;-71
2023/08/10 07:42:13;;;;;;;9.17;8.40;;;;;;;;;;2615031;54;20358;-72
2023/08/10 07:47:42;;;;;;;9.00;8.20;;;;;;;;;;2615442;54;20414;-72
2023/08/10 07:53:12;;;;;;;9.20;8.30;;;;;;;;;;2615074;54;20504;-72
2023/08/10 07:58:42;;;;;;;9.47;8.67;;;;;;;;;;2614631;54;20503;-73
2023/08/10 08:04:12;;;;;;;9.37;8.53;;;;;;;;;;2615165;54;20355;-71
2023/08/10 08:09:42;;;;;;;8.90;8.30;;;;;;;;;;2615302;54;20382;-71
2023/08/10 08:15:12;;;;;;;9.33;8.50;;;;;;;;;;2614854;54;20403;-71
2023/08/10 08:20:41;;;;;;;9.70;9.10;;;;;;;;;;2615149;54;20447;-70
2023/08/10 08:26:11;;;;;;;9.53;8.73;;;;;;;;;;2615275;39;20782;-71
2023/08/10 08:31:40;;;;;;;8.63;7.83;;;;;;;;;;2614895;54;20402;-72
2023/08/10 08:43:18;;;;;;;9.80;8.80;;;;;;;;;;2614589;54;20576;-73
2023/08/10 08:48:48;;;;;;;9.27;8.87;;;;;;;;;;2614683;54;20378;-72
2023/08/10 08:54:19;;;;;;;9.63;9.10;;;;;;;;;;2615433;39;20826;-73
2023/08/10 08:59:48;;;;;;;9.10;8.40;;;;;;;;;;2615259;54;20878;-73
2023/08/10 09:05:19;;;;;;;10.30;9.60;;;;;;;;;;2614851;54;21037;-73
2023/08/10 09:10:49;;;;;;;10.90;10.10;;;;;;;;;;2614801;54;20442;-72
2023/08/10 09:16:18;;;;;;;11.07;9.80;;;;;;;;;;2614855;54;20909;-73
2023/08/10 09:21:49;;;;;;;11.40;10.70;;;;;;;;;;2614805;54;20359;-71
2023/08/10 09:27:18;;;;;;;9.27;8.87;;;;;;;;;;2615164;54;20382;-71
2023/08/10 09:32:48;;;;;;;11.80;10.80;;;;;;;;;;2615092;54;20407;-71
2023/08/10 09:42:01;;;;;;;10.60;9.70;;;;;;;;;;2614678;54;20395;-72
2023/08/10 09:47:35;;;;;;;10.60;9.83;;;;;;;;;;2614639;54;20362;-72
2023/08/10 09:53:05;;;;;;;10.80;9.90;;;;;;;;;;2614908;54;20370;-71
2023/08/10 09:58:36;;;;;;;11.63;9.90;;;;;;;;;;2614477;54;20380;-70
2023/08/10 10:04:05;;;;;;;10.37;9.57;;;;;;;;;;2615117;39;20745;-70
2023/08/10 10:09:39;;;;;;;9.03;8.33;;;;;;;;;;2614844;54;20375;-70
2023/08/10 10:15:08;;;;;;;10.27;9.67;;;;;;;;;;2614629;54;21150;-71
2023/08/10 10:20:45;;;;;;;9.47;8.87;;;;;;;;;;2614351;54;20849;-72
2023/08/10 10:26:19;;;;;;;10.47;9.40;;;;;;;;;;2614564;54;20367;-73
2023/08/10 10:31:48;;;;;;;9.40;8.90;;;;;;;;;;2614758;54;20398;-71
2023/08/10 10:37:28;;;;;;;9.87;9.27;;;;;;;;;;2614282;54;20386;-71
2023/08/10 10:43:04;;;;;;;9.00;8.50;;;;;;;;;;2614257;54;20395;-71
2023/08/10 10:48:34;;;;;;;11.23;10.57;;;;;;;;;;2614288;54;20482;-71
2023/08/10 10:54:04;;;;;;;9.20;8.50;;;;;;;;;;2614890;39;20760;-71
2023/08/10 10:59:34;;;;;;;10.17;9.67;;;;;;;;;;2614336;46;20487;-70
2023/08/10 11:05:06;;;;;;;9.67;8.97;;;;;;;;;;2614338;47;20845;-71
2023/08/10 11:10:37;;;;;;;9.93;9.23;;;;;;;;;;2615437;54;20410;-72
2023/08/10 11:16:09;;;;;;;9.73;9.23;;;;;;;;;;2615013;54;21059;-70
2023/08/10 11:21:41;;;;;;;9.77;9.03;;;;;;;;;;2615645;31;20828;-70
2023/08/10 11:27:11;;;;;;;11.00;10.10;;;;;;;;;;2614964;54;20363;-71
2023/08/10 11:32:41;;;;;;;10.80;10.20;;;;;;;;;;2614728;54;20597;-71
2023/08/10 11:44:23;;;;;;;9.50;8.80;;;;;;;;;;2616211;54;20370;-74
2023/08/10 11:49:52;;;;;;;10.37;9.97;;;;;;;;;;2615952;54;20379;-74
2023/08/10 11:55:22;;;;;;;10.50;9.80;;;;;;;;;;2615621;54;20379;-74
2023/08/10 12:00:55;;;;;;;10.40;9.80;;;;;;;;;;2615716;54;20383;-73
2023/08/10 12:06:25;;;;;;;11.00;9.90;;;;;;;;;;2616146;54;20418;-74
2023/08/10 12:11:55;;;;;;;10.13;9.43;;;;;;;;;;2616092;39;21105;-74
2023/08/10 12:17:24;;;;;;;10.97;10.27;;;;;;;;;;2616009;54;20355;-75
2023/08/10 12:22:54;;;;;;;11.83;11.13;;;;;;;;;;2615753;54;20395;-74
2023/08/10 12:28:25;;;;;;;11.10;10.40;;;;;;;;;;2615884;54;20383;-73
2023/08/10 12:33:56;;;;;;;10.00;9.50;;;;;;;;;;2616158;54;20383;-75
2023/08/10 12:43:04;;;;;;;11.33;10.53;;;;;;;;;;2616056;54;20408;-76
2023/08/10 12:48:34;;;;;;;12.30;11.40;;;;;;;;;;2615900;54;20431;-74
2023/08/10 12:54:04;;;;;;;12.80;11.87;;;;;;;;;;2614367;54;21065;-74
2023/08/10 12:59:34;;;;;;;12.90;11.90;;;;;;;;;;2614588;54;21055;-73
2023/08/10 13:05:06;;;;;;;13.13;12.50;;;;;;;;;;2614612;54;20524;-73
2023/08/10 13:10:36;;;;;;;11.47;10.77;;;;;;;;;;2614402;54;20388;-73
2023/08/10 13:16:05;;;;;;;12.20;11.63;;;;;;;;;;2614692;39;21061;-73
2023/08/10 13:21:35;;;;;;;12.30;11.60;;;;;;;;;;2614888;54;20387;-73
2023/08/10 13:27:05;;;;;;;11.70;11.10;;;;;;;;;;2614741;54;20467;-74
2023/08/10 13:32:35;;;;;;;10.97;10.40;;;;;;;;;;2614160;54;20414;-73
2023/08/10 13:38:04;;;;;;;12.90;12.20;;;;;;;;;;2614729;54;20351;-73
2023/08/10 13:43:34;;;;;;;12.80;12.10;;;;;;;;;;2614460;54;20450;-73
2023/08/10 13:49:04;;;;;;;12.57;11.67;;;;;;;;;;2614521;54;20390;-73
2023/08/10 13:54:33;;;;;;;12.23;11.20;;;;;;;;;;2614716;54;20386;-73
2023/08/10 14:00:03;;;;;;;13.23;12.53;;;;;;;;;;2614435;54;20387;-73
2023/08/10 14:05:33;;;;;;;13.17;12.37;;;;;;;;;;2613735;54;20399;-72
2023/08/10 14:11:03;;;;;;;12.60;11.90;;;;;;;;;;2615130;39;21579;-73
2023/08/10 14:16:32;;;;;;;12.90;11.67;;;;;;;;;;2614196;54;20362;-74
2023/08/10 14:22:02;;;;;;;12.53;11.77;;;;;;;;;;2614619;54;20456;-74
2023/08/10 14:27:32;;;;;;;11.03;10.43;;;;;;;;;;2615067;39;20967;-74
2023/08/10 14:33:02;;;;;;;11.87;11.13;;;;;;;;;;2613809;54;20375;-73
2023/08/10 14:38:32;;;;;;;12.43;11.83;;;;;;;;;;2614509;54;20944;-74
2023/08/10 14:53:23;;;;;;;12.67;11.67;;;;;;;;;;2613332;54;20378;-74
2023/08/10 14:58:53;;;;;;;13.70;12.43;;;;;;;;;;2613677;54;20404;-73
2023/08/10 15:04:22;;;;;;;11.90;11.20;;;;;;;;;;2613453;54;20944;-73
2023/08/10 15:09:51;;;;;;;12.17;11.57;;;;;;;;;;2614040;54;20395;-73
2023/08/10 15:15:20;;;;;;;12.10;11.40;;;;;;;;;;2613879;54;20355;-73
2023/08/10 15:20:49;;;;;;;10.93;10.43;;;;;;;;;;2613910;54;20386;-74
2023/08/10 15:26:19;;;;;;;11.30;10.80;;;;;;;;;;2612945;54;20393;-74
2023/08/10 15:31:51;;;;;;;11.93;11.23;;;;;;;;;;2615589;54;20390;-74
2023/08/10 15:37:20;;;;;;;11.00;10.23;;;;;;;;;;2615175;54;20398;-74
2023/08/10 15:42:50;;;;;;;10.93;10.43;;;;;;;;;;2615210;54;20359;-73
2023/08/10 15:48:19;;;;;;;11.23;10.63;;;;;;;;;;2614908;54;20406;-74
2023/08/10 15:53:49;;;;;;;11.30;10.70;;;;;;;;;;2615012;54;20942;-72
2023/08/10 15:59:19;;;;;;;11.60;10.90;;;;;;;;;;2615155;54;20387;-73
2023/08/10 16:04:48;;;;;;;10.00;9.50;;;;;;;;;;2613440;54;20383;-74
2023/08/10 16:10:18;;;;;;;9.70;9.20;;;;;;;;;;2615160;54;20371;-73
2023/08/10 16:15:47;;;;;;;11.03;10.47;;;;;;;;;;2615157;31;20859;-74
2023/08/10 16:21:17;;;;;;;11.20;10.53;;;;;;;;;;2614847;54;21483;-72
2023/08/10 16:26:47;;;;;;;10.63;10.13;;;;;;;;;;2614549;54;20376;-73
2023/08/10 16:32:16;;;;;;;11.00;10.40;;;;;;;;;;2615051;54;20395;-73
2023/08/10 16:37:46;;;;;;;10.63;10.10;;;;;;;;;;2614634;54;20375;-73
2023/08/10 16:49:23;;;;;;;11.30;10.70;;;;;;;;;;2615086;54;20463;-74
2023/08/10 16:54:52;;;;;;;11.73;10.73;;;;;;;;;;2614666;54;20391;-73
2023/08/10 17:00:24;;;;;;;11.00;10.40;;;;;;;;;;2614642;54;20503;-74
2023/08/10 17:05:53;;;;;;;11.10;10.40;;;;;;;;;;2614471;54;20419;-74
2023/08/10 17:11:23;;;;;;;12.30;11.40;;;;;;;;;;2614568;54;20471;-73
2023/08/10 17:16:52;;;;;;;12.53;11.63;;;;;;;;;;2614781;39;21056;-73
2023/08/10 17:22:22;;;;;;;11.17;10.37;;;;;;;;;;2614784;54;20395;-75
2023/08/10 17:27:52;;;;;;;11.10;10.50;;;;;;;;;;2614714;39;20786;-74
2023/08/10 17:33:22;;;;;;;14.30;13.30;;;;;;;;;;2614648;54;20917;-76
2023/08/10 17:38:51;;;;;;;11.50;10.90;;;;;;;;;;2614430;54;20387;-73
2023/08/10 17:50:29;;;;;;;11.13;10.50;;;;;;;;;;2614286;54;20350;-74
2023/08/10 17:55:59;;;;;;;11.50;10.80;;;;;;;;;;2614061;54;20597;-74
2023/08/10 18:01:29;;;;;;;10.97;10.40;;;;;;;;;;2614805;54;20414;-76
2023/08/10 18:06:58;;;;;;;12.13;11.30;;;;;;;;;;2614155;54;20394;-74
2023/08/10 18:12:28;;;;;;;11.03;10.43;;;;;;;;;;2614662;39;20469;-74
2023/08/10 18:17:58;;;;;;;11.40;10.80;;;;;;;;;;2614129;54;20419;-75
2023/08/10 18:23:28;;;;;;;10.33;9.83;;;;;;;;;;2615605;54;20402;-75
2023/08/10 18:28:57;;;;;;;11.40;10.70;;;;;;;;;;2614719;54;20382;-75
2023/08/10 18:34:33;;;;;;;10.77;10.17;;;;;;;;;;2615911;54;20427;-76
2023/08/10 18:40:05;;;;;;;11.17;9.70;;;;;;;;;;2615990;54;20403;-75
2023/08/10 18:45:35;;;;;;;10.27;9.57;;;;;;;;;;2615987;54;20470;-77
2023/08/10 18:51:05;;;;;;;11.60;10.90;;;;;;;;;;2616132;54;20367;-75
2023/08/10 18:56:35;;;;;;;11.10;10.30;;;;;;;;;;2615824;54;20479;-75
2023/08/10 19:02:04;;;;;;;9.60;9.00;;;;;;;;;;2613955;54;20350;-74
2023/08/10 19:07:34;;;;;;;9.77;9.07;;;;;;;;;;2613715;54;20351;-74
2023/08/10 19:13:04;;;;;;;10.00;9.20;;;;;;;;;;2613880;54;20435;-73
2023/08/10 19:18:36;;;;;;;9.57;8.80;;;;;;;;;;2613938;54;20362;-73
2023/08/10 19:24:06;;;;;;;9.97;9.10;;;;;;;;;;2614137;54;20934;-73
2023/08/10 19:29:37;;;;;;;10.07;9.13;;;;;;;;;;2613695;54;21181;-74
2023/08/10 19:35:07;;;;;;;8.93;8.23;;;;;;;;;;2615129;54;20447;-73
2023/08/10 19:40:37;;;;;;;7.90;7.30;;;;;;;;;;2615315;54;20478;-74
2023/08/10 19:46:19;;;;;;;9.33;8.63;;;;;;;;;;2613647;54;21072;-73
2023/08/10 19:51:48;;;;;;;9.37;8.57;;;;;;;;;;2613852;54;20524;-75
2023/08/10 19:57:17;;;;;;;9.40;8.70;;;;;;;;;;2613893;31;20930;-74
2023/08/10 20:02:46;;;;;;;11.30;8.90;;;;;;;;;;2613319;54;20435;-74
2023/08/10 20:08:16;;;;;;;8.87;8.00;;;;;;;;;;2612779;54;20363;-74
2023/08/10 20:13:46;;;;;;;8.73;7.83;;;;;;;;;;2613538;54;20374;-73
2023/08/10 20:19:15;;;;;;;10.13;8.10;;;;;;;;;;2613627;54;20362;-73
2023/08/10 20:24:45;;;;;;;8.70;8.00;;;;;;;;;;2614567;54;20371;-73
2023/08/10 20:30:15;;;;;;;8.20;7.50;;;;;;;;;;2614821;54;20371;-73
2023/08/10 20:35:45;;;;;;;10.13;8.73;;;;;;;;;;2614245;54;20990;-74
2023/08/10 20:41:14;;;;;;;9.77;8.87;;;;;;;;;;2614653;54;20384;-74
2023/08/10 20:50:19;;;;;;;10.30;7.50;;;;;;;;;;2615682;54;20423;-74
2023/08/10 20:55:48;;;;;;;18.40;8.47;;;;;;;;;;2614952;54;20367;-74
2023/08/10 21:01:18;;;;;;;13.50;7.60;;;;;;;;;;2614703;39;20811;-73
2023/08/10 21:04:02;;;;;;;7.93;7.23;;;;;;;;;;2614282;54;20961;-74
2023/08/10 21:06:30;;;;;;;15.80;9.70;;;;;;;;;;2613743;54;20511;-74
2023/08/10 21:11:59;;;;;;;8.63;7.70;;;;;;;;;;2614533;54;20395;-73
2023/08/10 21:17:29;;;;;;;8.97;7.70;;;;;;;;;;2614815;39;20852;-73
2023/08/10 21:22:59;;;;;;;11.10;7.70;;;;;;;;;;2614519;54;20371;-73
2023/08/10 21:28:28;;;;;;;8.53;7.73;;;;;;;;;;2614807;46;20943;-73
2023/08/10 21:33:58;;;;;;;10.07;7.73;;;;;;;;;;2613717;39;20520;-73
2023/08/10 21:39:28;;;;;;;7.60;6.80;;;;;;;;;;2613955;54;20386;-73
2023/08/10 21:44:58;;;;;;;8.60;7.70;;;;;;;;;;2614591;54;20391;-73
2023/08/10 21:54:08;;;;;;;10.37;8.00;;;;;;;;;;2614203;54;20419;-74
2023/08/10 21:59:38;;;;;;;11.20;8.00;;;;;;;;;;2614087;54;20415;-74
2023/08/10 22:05:07;;;;;;;8.73;7.73;;;;;;;;;;2614456;54;20965;-73
2023/08/10 22:10:37;;;;;;;13.30;8.00;;;;;;;;;;2614106;54;20422;-73
2023/08/10 22:16:06;;;;;;;10.67;7.30;;;;;;;;;;2614121;54;20416;-73
2023/08/10 22:21:36;;;;;;;8.90;8.00;;;;;;;;;;2614400;54;20901;-74
2023/08/10 22:27:07;;;;;;;8.03;7.23;;;;;;;;;;2613746;54;20909;-73
2023/08/10 22:32:37;;;;;;;8.47;7.57;;;;;;;;;;2614494;54;20498;-72
2023/08/10 22:38:06;;;;;;;9.37;8.47;;;;;;;;;;2614742;54;20398;-71
2023/08/10 22:43:39;;;;;;;19.23;7.93;;;;;;;;;;2614053;54;20359;-71
2023/08/10 22:49:08;;;;;;;7.67;7.07;;;;;;;;;;2614118;54;20403;-71
2023/08/10 22:54:38;;;;;;;11.23;7.63;;;;;;;;;;2614421;54;20434;-74
2023/08/10 23:00:09;;;;;;;7.77;6.97;;;;;;;;;;2616167;39;21023;-74
2023/08/10 23:05:39;;;;;;;13.63;8.23;;;;;;;;;;2616300;54;20375;-74
2023/08/10 23:11:09;;;;;;;10.20;7.87;;;;;;;;;;2616784;54;20499;-74
2023/08/10 23:16:38;;;;;;;7.60;7.00;;;;;;;;;;2616779;54;20387;-75
2023/08/10 23:22:08;;;;;;;8.33;7.53;;;;;;;;;;2615884;54;20980;-74
2023/08/10 23:27:38;;;;;;;10.50;7.50;;;;;;;;;;2614548;54;20418;-74
2023/08/10 23:33:07;;;;;;;8.67;7.97;;;;;;;;;;2614310;46;20398;-73
2023/08/10 23:38:38;;;;;;;10.03;8.17;;;;;;;;;;2615353;54;20519;-74
2023/08/10 23:44:08;;;;;;;14.97;7.97;;;;;;;;;;2615342;54;20402;-73
2023/08/10 23:49:37;;;;;;;10.40;8.50;;;;;;;;;;2614840;54;20948;-73
2023/08/10 23:58:40;;;;;;;9.90;9.00;;;;;;;;;;2614811;54;20378;-73
